Time;durP1;ratioP1;P1;durP2;ratioP2;P2;SDS_P1;SDS_P2;PMS_P1;PMS_P2;Temp;Humidity;BMP_temperature;BMP_pressure;BME280_temperature;BME280_humidity;BME280_pressure;Samples;Min_cycle;Max_cycle;Signal;HPM_P1;HPM_P2
2022/03/28 00:01:18;;;;;;;;;62.25;47.75;16.00;28.90;;;;;;4959364;28;8948;-61
2022/03/28 00:03:44;;;;;;;;;53.75;44.75;15.80;29.10;;;;;;4959117;28;8799;-61
2022/03/28 00:06:10;;;;;;;;;52.75;44.00;15.70;29.10;;;;;;4959063;28;8764;-61
2022/03/28 00:08:39;;;;;;;;;50.75;41.25;15.20;29.60;;;;;;4958978;28;8780;-62
2022/03/28 00:11:08;;;;;;;;;53.25;43.00;15.40;29.60;;;;;;4961969;28;8785;-61
2022/03/28 00:13:35;;;;;;;;;53.25;42.75;15.70;29.50;;;;;;4967844;28;8788;-62
2022/03/28 00:16:02;;;;;;;;;51.50;43.25;15.70;29.50;;;;;;4959146;28;8779;-61
2022/03/28 00:18:28;;;;;;;;;51.75;43.50;15.60;29.60;;;;;;4959034;28;8816;-60
2022/03/28 00:20:55;;;;;;;;;52.25;41.50;15.40;29.70;;;;;;4958896;28;8831;-61
2022/03/28 00:23:22;;;;;;;;;50.75;42.50;15.40;30.60;;;;;;4958853;28;8768;-61
2022/03/28 00:25:48;;;;;;;;;54.00;43.25;15.60;29.70;;;;;;4958695;28;8800;-64
2022/03/28 00:28:15;;;;;;;;;51.75;44.50;15.50;29.60;;;;;;4958978;28;8785;-61
2022/03/28 00:30:41;;;;;;;;;56.75;45.25;15.40;29.40;;;;;;4958634;28;8772;-61
2022/03/28 00:33:08;;;;;;;;;53.75;43.75;15.50;29.30;;;;;;4959058;28;8804;-61
2022/03/28 00:35:35;;;;;;;;;52.25;43.50;15.40;29.20;;;;;;4958519;28;8779;-61
2022/03/28 00:38:02;;;;;;;;;53.75;44.50;15.60;29.20;;;;;;4958299;28;8776;-60
2022/03/28 00:40:31;;;;;;;;;51.75;42.50;15.70;29.00;;;;;;4941532;28;8789;-63
2022/03/28 00:42:58;;;;;;;;;57.50;46.75;15.40;29.60;;;;;;4958419;28;8863;-63
2022/03/28 00:45:25;;;;;;;;;53.25;45.25;15.40;30.00;;;;;;4958603;28;8783;-60
2022/03/28 00:47:51;;;;;;;;;49.50;41.25;14.80;32.40;;;;;;4958607;28;8799;-60
2022/03/28 00:50:17;;;;;;;;;49.50;42.50;14.70;33.20;;;;;;4958299;28;8796;-62
2022/03/28 00:52:43;;;;;;;;;56.50;47.50;14.60;33.20;;;;;;4958463;28;8760;-60
2022/03/28 00:55:09;;;;;;;;;51.50;38.00;14.20;34.00;;;;;;4958154;28;8776;-61
2022/03/28 00:57:35;;;;;;;;;43.75;38.00;14.30;34.20;;;;;;4958267;28;8827;-63
2022/03/28 01:00:05;;;;;;;;;48.00;39.50;14.20;34.50;;;;;;4958025;28;8804;-61
2022/03/28 01:02:32;;;;;;;;;52.50;44.25;14.20;34.50;;;;;;4958345;28;8800;-61
2022/03/28 01:04:58;;;;;;;;;60.50;48.75;14.10;34.50;;;;;;4958023;28;8891;-61
2022/03/28 01:07:28;;;;;;;;;56.75;46.25;13.70;36.40;;;;;;4957976;28;8760;-62
2022/03/28 01:09:59;;;;;;;;;56.00;46.50;13.20;38.10;;;;;;4957886;28;8764;-63
2022/03/28 01:12:31;;;;;;;;;50.00;42.25;13.00;38.80;;;;;;4941602;28;8902;-62
2022/03/28 01:14:57;;;;;;;;;50.50;41.75;13.40;38.40;;;;;;4940911;28;9009;-62
2022/03/28 01:20:09;;;;;;;;;56.00;46.00;13.50;37.10;;;;;;4957816;28;8800;-62
2022/03/28 01:22:35;;;;;;;;;64.50;50.00;12.80;38.50;;;;;;4957377;28;8824;-63
2022/03/28 01:25:06;;;;;;;;;64.75;52.50;12.60;38.70;;;;;;4957775;28;8756;-60
2022/03/28 01:27:33;;;;;;;;;70.50;54.50;12.50;39.40;;;;;;4957661;28;8776;-61
2022/03/28 01:29:59;;;;;;;;;61.75;49.50;12.70;38.80;;;;;;4957523;28;8788;-62
2022/03/28 01:32:25;;;;;;;;;64.75;51.75;12.70;38.40;;;;;;4940594;28;8816;-61
2022/03/28 01:34:51;;;;;;;;;59.00;48.00;12.70;37.80;;;;;;4957791;28;8846;-60
2022/03/28 01:37:17;;;;;;;;;65.25;52.00;13.30;36.10;;;;;;4957665;28;8796;-62
2022/03/28 01:39:43;;;;;;;;;60.50;49.00;13.80;36.10;;;;;;4957148;28;8828;-61
2022/03/28 01:42:08;;;;;;;;;58.75;48.50;14.00;35.50;;;;;;4957123;28;8760;-59
2022/03/28 01:44:34;;;;;;;;;59.75;48.00;14.00;35.00;;;;;;4957339;28;8880;-62
2022/03/28 01:47:00;;;;;;;;;54.25;44.75;13.80;35.10;;;;;;4957319;28;8757;-61
2022/03/28 01:49:26;;;;;;;;;60.00;49.00;13.70;34.40;;;;;;4957146;28;8792;-61
2022/03/28 01:51:52;;;;;;;;;55.25;47.25;13.30;35.50;;;;;;4957446;28;8781;-60
2022/03/28 01:54:18;;;;;;;;;60.75;49.25;12.70;36.50;;;;;;4957137;28;8777;-60
2022/03/28 01:56:44;;;;;;;;;62.50;51.75;12.70;36.50;;;;;;4957293;28;8757;-61
2022/03/28 01:59:10;;;;;;;;;59.25;47.25;12.90;36.50;;;;;;4956931;28;8919;-62
2022/03/28 02:01:37;;;;;;;;;55.50;44.25;12.70;37.00;;;;;;4957180;28;8808;-63
2022/03/28 02:04:03;;;;;;;;;53.00;43.25;12.40;37.60;;;;;;4956975;28;8843;-62
2022/03/28 02:06:29;;;;;;;;;55.25;43.50;12.00;38.70;;;;;;4956882;28;8788;-62
2022/03/28 02:08:55;;;;;;;;;53.00;44.00;11.90;39.50;;;;;;4956944;28;8794;-61
2022/03/28 02:11:21;;;;;;;;;45.00;38.50;11.90;39.80;;;;;;4956934;28;8915;-60
2022/03/28 02:13:47;;;;;;;;;46.75;39.50;12.10;39.30;;;;;;4956809;28;8801;-61
2022/03/28 02:16:13;;;;;;;;;50.50;40.50;12.50;38.50;;;;;;4956739;28;8761;-61
2022/03/28 02:18:39;;;;;;;;;38.25;36.50;13.10;37.40;;;;;;4956901;28;8827;-61
2022/03/28 02:21:06;;;;;;;;;45.00;39.75;13.00;37.10;;;;;;4956940;28;8764;-61
2022/03/28 02:23:31;;;;;;;;;47.00;39.00;12.70;37.40;;;;;;4956634;28;8773;-60
2022/03/28 02:25:58;;;;;;;;;52.00;41.00;12.80;37.70;;;;;;4956670;28;8765;-61
2022/03/28 02:28:23;;;;;;;;;45.00;38.00;13.20;37.40;;;;;;4956781;28;8772;-59
2022/03/28 02:30:49;;;;;;;;;40.25;36.75;13.30;35.80;;;;;;4956416;28;8753;-62
2022/03/28 02:33:15;;;;;;;;;43.00;37.50;13.30;35.30;;;;;;4956561;28;8889;-62
2022/03/28 02:35:41;;;;;;;;;51.25;38.75;13.70;35.40;;;;;;4956440;28;8812;-62
2022/03/28 02:38:08;;;;;;;;;46.00;41.00;13.70;35.10;;;;;;4956162;28;8773;-61
2022/03/28 02:40:34;;;;;;;;;60.00;50.25;13.60;35.40;;;;;;4956690;28;8776;-62
2022/03/28 02:43:02;;;;;;;;;54.00;44.50;13.60;35.70;;;;;;4956456;28;8785;-60
2022/03/28 02:45:30;;;;;;;;;52.00;44.25;13.60;35.30;;;;;;4956333;28;8772;-61
2022/03/28 02:47:58;;;;;;;;;50.50;42.25;13.80;34.80;;;;;;4956546;28;8796;-59
2022/03/28 02:50:23;;;;;;;;;45.75;37.75;13.80;34.60;;;;;;4956296;28;8846;-63
2022/03/28 02:52:49;;;;;;;;;54.75;45.50;13.70;35.10;;;;;;4956324;28;8796;-61
2022/03/28 02:55:17;;;;;;;;;50.50;41.75;13.90;34.90;;;;;;4956305;28;8810;-60
2022/03/28 02:57:42;;;;;;;;;50.50;42.50;13.90;34.50;;;;;;4956252;29;8768;-62
2022/03/28 03:00:10;;;;;;;;;43.50;38.50;13.30;35.90;;;;;;4956085;28;8838;-62
2022/03/28 03:02:38;;;;;;;;;51.00;42.75;13.20;36.70;;;;;;4956751;29;8835;-62
2022/03/28 03:05:06;;;;;;;;;49.00;40.25;13.30;36.50;;;;;;4956169;29;8842;-61
2022/03/28 03:07:32;;;;;;;;;50.00;42.00;13.10;37.40;;;;;;4955867;29;8805;-62
2022/03/28 03:09:58;;;;;;;;;53.50;45.50;12.60;38.60;;;;;;4956077;29;8803;-65
2022/03/28 03:12:24;;;;;;;;;60.50;47.00;12.30;39.60;;;;;;4956291;29;8773;-61
2022/03/28 03:14:51;;;;;;;;;60.25;48.00;12.50;39.40;;;;;;4956067;29;8963;-62
2022/03/28 03:17:17;;;;;;;;;62.75;48.00;12.30;39.90;;;;;;4956102;28;8773;-60
2022/03/28 03:19:44;;;;;;;;;51.75;43.00;12.40;40.50;;;;;;4955944;29;8822;-61
2022/03/28 03:22:11;;;;;;;;;51.00;43.75;12.00;42.20;;;;;;4956039;29;8788;-62
2022/03/28 03:24:37;;;;;;;;;53.25;43.00;12.30;42.30;;;;;;4956062;29;8788;-62
2022/03/28 03:27:03;;;;;;;;;53.50;44.25;12.40;41.60;;;;;;4956337;29;8787;-59
2022/03/28 03:29:29;;;;;;;;;59.50;48.00;12.60;41.10;;;;;;4956243;29;8791;-62
2022/03/28 03:31:55;;;;;;;;;53.00;43.75;12.10;42.60;;;;;;4956247;29;8808;-59
2022/03/28 03:34:21;;;;;;;;;52.25;41.00;11.70;42.80;;;;;;4955910;29;9896;-60
2022/03/28 03:36:46;;;;;;;;;52.25;42.25;11.40;44.80;;;;;;4955925;29;8839;-61
2022/03/28 03:39:12;;;;;;;;;53.50;42.50;11.90;42.70;;;;;;4962270;28;8806;-62
2022/03/28 03:41:38;;;;;;;;;52.50;43.00;11.70;43.00;;;;;;4967746;28;8767;-61
2022/03/28 03:44:06;;;;;;;;;45.75;40.25;12.40;41.20;;;;;;4975192;28;8821;-61
2022/03/28 03:46:32;;;;;;;;;53.25;45.50;12.80;40.20;;;;;;4976320;28;8924;-60
2022/03/28 03:48:58;;;;;;;;;52.75;42.75;12.60;41.00;;;;;;4978701;28;8847;-62
2022/03/28 03:51:24;;;;;;;;;57.00;46.50;12.00;42.30;;;;;;4978929;28;8758;-62
2022/03/28 03:53:50;;;;;;;;;56.75;46.75;11.70;43.00;;;;;;4978505;28;9420;-62
2022/03/28 03:56:16;;;;;;;;;52.00;42.75;11.40;43.30;;;;;;4978486;28;8773;-61
2022/03/28 03:58:42;;;;;;;;;52.50;43.25;11.30;43.00;;;;;;4978667;28;8778;-62
2022/03/28 04:01:08;;;;;;;;;52.25;44.25;11.90;42.40;;;;;;4978669;28;8754;-60
2022/03/28 04:03:37;;;;;;;;;52.75;44.00;12.00;42.20;;;;;;4978445;28;8765;-61
2022/03/28 04:06:03;;;;;;;;;57.25;44.00;12.20;40.70;;;;;;4978595;28;8782;-61
2022/03/28 04:08:29;;;;;;;;;56.00;45.50;12.30;40.30;;;;;;4961197;28;9417;-59
2022/03/28 04:10:55;;;;;;;;;45.25;39.50;12.50;40.00;;;;;;4978208;28;8799;-59
2022/03/28 04:13:22;;;;;;;;;56.50;46.50;12.70;38.70;;;;;;4978073;28;8806;-60
2022/03/28 04:15:48;;;;;;;;;58.25;45.25;12.70;38.40;;;;;;4978172;28;9310;-60
2022/03/28 04:18:14;;;;;;;;;58.75;49.25;12.80;38.50;;;;;;4978176;28;8767;-62
2022/03/28 04:20:41;;;;;;;;;57.25;46.25;12.80;38.00;;;;;;4978310;28;9459;-59
2022/03/28 04:23:07;;;;;;;;;60.50;49.50;12.70;38.30;;;;;;4978398;28;9587;-60
2022/03/28 04:25:33;;;;;;;;;58.00;48.25;12.80;38.00;;;;;;4978358;28;8805;-61
2022/03/28 04:27:59;;;;;;;;;63.25;52.25;12.80;37.90;;;;;;4978004;28;9443;-59
2022/03/28 04:30:25;;;;;;;;;67.75;54.50;12.90;37.60;;;;;;4978180;28;8762;-60
2022/03/28 04:32:51;;;;;;;;;85.75;67.50;12.10;39.50;;;;;;4977917;28;8778;-61
2022/03/28 04:35:17;;;;;;;;;78.00;61.75;11.90;39.90;;;;;;4977813;28;8786;-61
2022/03/28 04:37:43;;;;;;;;;78.75;62.00;12.30;39.50;;;;;;4977810;28;8797;-60
2022/03/28 04:40:13;;;;;;;;;79.75;64.75;12.30;38.70;;;;;;4971644;28;8806;-59
2022/03/28 04:42:39;;;;;;;;;85.25;72.50;12.50;38.10;;;;;;4971140;28;8842;-59
2022/03/28 04:45:06;;;;;;;;;82.50;66.00;12.40;38.20;;;;;;4974015;28;8780;-60
2022/03/28 04:47:33;;;;;;;;;86.00;74.75;12.50;38.20;;;;;;4977768;28;8787;-60
2022/03/28 04:49:59;;;;;;;;;85.00;72.75;12.50;38.20;;;;;;4977561;28;8813;-60
2022/03/28 04:52:24;;;;;;;;;86.25;71.75;11.70;39.80;;;;;;4969074;28;9413;-58
2022/03/28 04:54:50;;;;;;;;;95.25;87.25;11.40;41.10;;;;;;4972360;28;8825;-60
2022/03/28 04:57:16;;;;;;;;;86.00;76.75;11.20;41.80;;;;;;4957585;28;8781;-61
2022/03/28 04:59:42;;;;;;;;;84.00;71.25;11.50;41.20;;;;;;4976522;28;8823;-61
2022/03/28 05:02:08;;;;;;;;;81.00;65.50;11.40;41.40;;;;;;4974517;28;9422;-59
2022/03/28 05:04:34;;;;;;;;;85.25;65.25;10.80;42.70;;;;;;4965865;28;8827;-59
2022/03/28 05:06:59;;;;;;;;;86.25;70.00;10.70;43.10;;;;;;4962945;28;8886;-59
2022/03/28 05:09:25;;;;;;;;;91.50;78.00;10.90;43.00;;;;;;4976905;28;8779;-59
2022/03/28 05:11:51;;;;;;;;;79.00;64.50;11.40;41.80;;;;;;4977059;28;8779;-60
2022/03/28 05:14:18;;;;;;;;;87.50;78.00;11.10;42.00;;;;;;4976792;28;8810;-60
2022/03/28 05:16:44;;;;;;;;;82.25;69.00;11.10;42.60;;;;;;4977114;28;9704;-60
2022/03/28 05:19:10;;;;;;;;;91.75;76.50;11.00;43.10;;;;;;4976820;28;8815;-59
2022/03/28 05:21:36;;;;;;;;;90.00;79.00;11.10;43.00;;;;;;4977246;28;8779;-60
2022/03/28 05:24:02;;;;;;;;;82.50;68.25;11.40;42.30;;;;;;4976901;28;8797;-60
2022/03/28 05:26:28;;;;;;;;;77.50;61.00;11.90;41.20;;;;;;4976905;28;8778;-60
2022/03/28 05:28:54;;;;;;;;;77.75;60.50;12.00;40.90;;;;;;4976729;28;9390;-60
2022/03/28 05:31:20;;;;;;;;;76.00;60.25;11.90;40.40;;;;;;4976845;28;8865;-60
2022/03/28 05:33:46;;;;;;;;;77.50;62.25;11.90;40.60;;;;;;4976603;28;8783;-60
2022/03/28 05:36:14;;;;;;;;;79.50;60.25;12.00;40.00;;;;;;4976718;28;8823;-60
2022/03/28 05:38:40;;;;;;;;;70.25;56.25;12.10;40.50;;;;;;4976317;28;8853;-60
2022/03/28 05:41:06;;;;;;;;;77.50;60.75;12.30;39.80;;;;;;4976577;28;8787;-60
2022/03/28 05:43:37;;;;;;;;;72.00;58.25;12.60;38.90;;;;;;4976964;28;8807;-60
2022/03/28 05:46:04;;;;;;;;;67.25;53.25;12.80;38.80;;;;;;4976598;28;8846;-60
2022/03/28 05:48:30;;;;;;;;;67.00;55.00;13.10;37.90;;;;;;4976541;28;8763;-60
2022/03/28 05:50:56;;;;;;;;;72.00;56.50;13.00;37.80;;;;;;4976576;28;8814;-61
2022/03/28 05:53:22;;;;;;;;;64.00;51.75;13.20;37.30;;;;;;4976415;28;8857;-61
2022/03/28 05:55:48;;;;;;;;;66.50;54.00;13.10;37.20;;;;;;4976365;28;8909;-61
2022/03/28 05:58:14;;;;;;;;;69.00;55.50;12.90;37.70;;;;;;4976390;28;8858;-61
2022/03/28 06:00:40;;;;;;;;;75.50;59.00;12.70;38.80;;;;;;4976248;28;8795;-60
2022/03/28 06:03:08;;;;;;;;;74.75;57.75;12.50;39.70;;;;;;4976156;28;8861;-61
2022/03/28 06:05:34;;;;;;;;;73.00;58.00;12.20;41.30;;;;;;4976142;28;8798;-61
2022/03/28 06:08:00;;;;;;;;;67.50;54.00;12.10;42.10;;;;;;4976122;28;8771;-61
2022/03/28 06:10:26;;;;;;;;;59.75;48.25;12.50;42.00;;;;;;4975785;28;8776;-61
2022/03/28 06:12:52;;;;;;;;;69.25;55.75;12.60;42.50;;;;;;4976204;28;8819;-61
2022/03/28 06:15:18;;;;;;;;;66.50;52.75;12.70;42.40;;;;;;4975940;28;8810;-60
2022/03/28 06:17:44;;;;;;;;;61.25;49.25;12.30;42.90;;;;;;4975975;28;8807;-60
2022/03/28 06:20:11;;;;;;;;;66.25;53.50;12.60;42.60;;;;;;4975968;28;8833;-60
2022/03/28 06:22:37;;;;;;;;;66.00;52.50;12.80;41.90;;;;;;4976001;28;8881;-61
2022/03/28 06:25:04;;;;;;;;;69.25;53.75;13.00;41.40;;;;;;4975851;28;8770;-61
2022/03/28 06:27:30;;;;;;;;;65.25;52.50;13.00;41.10;;;;;;4975920;28;8759;-60
2022/03/28 06:29:56;;;;;;;;;69.50;54.00;13.00;41.20;;;;;;4976092;28;9425;-61
2022/03/28 06:32:22;;;;;;;;;67.50;53.00;13.20;42.10;;;;;;4975794;28;8770;-60
2022/03/28 06:34:49;;;;;;;;;67.25;53.25;13.10;41.00;;;;;;4975832;28;8785;-60
2022/03/28 06:37:16;;;;;;;;;62.00;51.00;13.10;40.90;;;;;;4976067;28;9448;-61
2022/03/28 06:39:42;;;;;;;;;66.00;52.00;13.30;40.40;;;;;;4975498;28;8917;-60
2022/03/28 06:42:08;;;;;;;;;59.00;48.75;13.30;40.50;;;;;;4975898;28;8778;-60
2022/03/28 06:44:34;;;;;;;;;60.50;48.00;13.50;39.70;;;;;;4975878;28;9455;-60
2022/03/28 06:47:00;;;;;;;;;53.00;44.50;13.70;39.10;;;;;;4975573;28;8767;-60
2022/03/28 06:49:27;;;;;;;;;57.00;48.00;14.00;38.30;;;;;;4975549;28;8770;-60
2022/03/28 06:51:53;;;;;;;;;57.50;46.00;14.20;37.30;;;;;;4975805;28;8805;-61
2022/03/28 06:54:19;;;;;;;;;58.75;47.50;14.00;36.30;;;;;;4975493;28;8766;-61
2022/03/28 06:56:46;;;;;;;;;53.50;43.50;13.60;36.80;;;;;;4975827;28;8774;-62
2022/03/28 06:59:12;;;;;;;;;50.50;41.25;13.80;37.10;;;;;;4975614;28;8814;-59
2022/03/28 07:01:39;;;;;;;;;60.00;48.00;13.90;36.40;;;;;;4975458;28;8771;-60
2022/03/28 07:04:05;;;;;;;;;59.75;50.00;14.00;36.30;;;;;;4975188;28;8787;-59
2022/03/28 07:06:31;;;;;;;;;59.50;48.25;14.40;35.90;;;;;;4975459;28;8893;-59
2022/03/28 07:08:57;;;;;;;;;58.75;47.75;14.50;35.40;;;;;;4975360;28;8794;-59
2022/03/28 07:11:25;;;;;;;;;61.50;48.00;14.50;35.60;;;;;;4975946;28;8762;-66
2022/03/28 07:13:51;;;;;;;;;61.25;48.75;14.50;36.00;;;;;;4975464;28;8810;-61
2022/03/28 07:16:17;;;;;;;;;59.00;48.75;14.50;35.60;;;;;;4975345;28;8802;-61
2022/03/28 07:18:42;;;;;;;;;56.75;47.00;14.30;36.40;;;;;;4975197;28;8814;-62
2022/03/28 07:21:09;;;;;;;;;58.00;47.25;14.50;36.60;;;;;;4976159;28;8771;-62
2022/03/28 07:23:35;;;;;;;;;57.25;47.00;14.20;37.20;;;;;;4979250;28;9555;-62
2022/03/28 07:26:00;;;;;;;;;56.25;46.25;14.30;37.40;;;;;;4979022;28;8873;-61
2022/03/28 07:28:26;;;;;;;;;54.00;44.00;14.50;36.90;;;;;;4979336;28;8897;-61
2022/03/28 07:30:52;;;;;;;;;56.75;46.25;14.70;37.10;;;;;;4979278;28;8782;-61
2022/03/28 07:33:18;;;;;;;;;58.75;48.00;14.60;37.80;;;;;;4979022;28;8759;-60
2022/03/28 07:35:45;;;;;;;;;58.75;48.00;14.80;37.20;;;;;;4978891;28;8881;-61
2022/03/28 07:38:11;;;;;;;;;58.75;45.75;14.60;37.50;;;;;;4978802;28;8864;-61
2022/03/28 07:40:40;;;;;;;;;60.25;48.50;14.90;36.70;;;;;;4978746;28;8912;-62
2022/03/28 07:43:07;;;;;;;;;55.00;44.50;14.90;37.50;;;;;;4979104;28;9012;-60
2022/03/28 07:45:34;;;;;;;;;56.75;45.75;15.00;37.10;;;;;;4978871;28;8793;-60
2022/03/28 07:47:59;;;;;;;;;51.00;42.00;15.40;36.70;;;;;;4978849;28;8766;-60
2022/03/28 07:50:26;;;;;;;;;49.75;41.50;15.80;36.00;;;;;;4978647;28;8798;-60
2022/03/28 07:52:52;;;;;;;;;52.50;44.00;15.70;36.50;;;;;;4978940;28;9630;-61
2022/03/28 07:55:18;;;;;;;;;45.00;37.50;15.50;36.30;;;;;;4978808;28;9479;-61
2022/03/28 07:57:45;;;;;;;;;48.75;40.25;15.60;36.50;;;;;;4978556;28;9393;-60
2022/03/28 08:00:16;;;;;;;;;43.75;37.00;15.70;37.30;;;;;;4978516;28;8802;-60
2022/03/28 08:02:42;;;;;;;;;41.50;38.50;15.80;36.60;;;;;;4978794;28;8829;-60
2022/03/28 08:05:09;;;;;;;;;32.50;31.75;15.90;36.40;;;;;;4961350;28;9503;-58
2022/03/28 08:07:36;;;;;;;;;36.50;32.75;16.00;35.50;;;;;;4978636;28;9381;-59
2022/03/28 08:10:06;;;;;;;;;38.25;33.75;16.30;33.90;;;;;;4978387;28;8789;-60
2022/03/28 08:12:33;;;;;;;;;37.25;32.25;16.50;32.90;;;;;;4978478;28;8802;-59
2022/03/28 08:14:58;;;;;;;;;31.25;30.00;16.50;31.50;;;;;;4978568;28;9472;-59
2022/03/28 08:17:24;;;;;;;;;37.75;33.50;16.30;31.90;;;;;;4978405;28;8801;-59
2022/03/28 08:19:50;;;;;;;;;34.50;31.25;16.50;32.40;;;;;;4977895;28;8825;-60
2022/03/28 08:22:17;;;;;;;;;36.00;32.75;16.70;31.70;;;;;;4976480;28;8778;-59
2022/03/28 08:24:43;;;;;;;;;38.25;33.50;16.80;31.30;;;;;;4977168;28;8762;-59
2022/03/28 08:27:09;;;;;;;;;39.25;32.75;16.90;31.20;;;;;;4976740;28;8763;-59
2022/03/28 08:29:35;;;;;;;;;36.25;31.50;17.10;31.30;;;;;;4976789;28;8891;-59
2022/03/28 08:32:02;;;;;;;;;19.00;19.00;17.10;29.30;;;;;;4976501;28;8846;-59
2022/03/28 08:34:29;;;;;;;;;23.75;21.00;17.10;28.90;;;;;;4976571;28;8782;-58
2022/03/28 08:36:55;;;;;;;;;30.00;29.33;17.00;27.30;;;;;;4976917;28;8767;-59
2022/03/28 08:39:21;;;;;;;;;30.00;25.67;16.80;29.00;;;;;;4976420;28;8807;-59
2022/03/28 08:41:49;;;;;;;;;28.67;28.00;17.10;28.30;;;;;;4976410;28;8771;-59
2022/03/28 08:44:17;;;;;;;;;25.67;21.67;17.30;28.10;;;;;;4976764;28;9108;-59
2022/03/28 08:46:45;;;;;;;;;25.00;23.00;17.50;27.60;;;;;;4976288;28;9729;-60
2022/03/28 08:49:12;;;;;;;;;21.00;18.67;17.50;27.20;;;;;;4976702;28;8766;-59
2022/03/28 08:51:39;;;;;;;;;22.00;20.00;17.60;27.30;;;;;;4976056;28;9408;-59
2022/03/28 08:54:05;;;;;;;;;23.00;22.33;17.40;26.20;;;;;;4976360;28;8767;-59
2022/03/28 08:56:31;;;;;;;;;18.00;17.00;17.20;26.20;;;;;;4976732;28;8754;-59
2022/03/28 08:58:57;;;;;;;;;23.00;20.00;17.30;25.60;;;;;;4977018;28;9661;-63
2022/03/28 09:01:23;;;;;;;;;24.33;23.67;17.50;26.00;;;;;;4977093;28;8893;-61
2022/03/28 09:03:50;;;;;;;;;21.67;20.00;17.70;26.10;;;;;;4977240;28;9361;-61
2022/03/28 09:06:42;;;;;;;;;23.33;22.00;17.90;26.10;;;;;;4977252;28;8778;-61
2022/03/28 09:09:15;;;;;;;;;19.33;18.00;18.10;25.40;;;;;;4960138;28;8790;-59
2022/03/28 09:11:42;;;;;;;;;13.67;12.00;17.70;25.50;;;;;;4977096;28;9826;-61
2022/03/28 09:14:12;;;;;;;;;14.67;12.67;17.90;23.90;;;;;;4977487;28;8790;-63
2022/03/28 09:16:38;;;;;;;;;20.33;17.00;17.90;24.30;;;;;;4976996;28;8770;-62
2022/03/28 09:19:10;;;;;;;;;21.33;19.33;18.10;23.80;;;;;;4977188;28;8814;-61
2022/03/28 09:21:36;;;;;;;;;24.33;21.00;18.60;23.40;;;;;;4976946;28;8877;-63
2022/03/28 09:24:07;;;;;;;;;21.00;17.67;18.60;23.90;;;;;;4976753;28;8786;-64
2022/03/28 09:26:33;;;;;;;;;17.00;15.33;18.10;22.40;;;;;;4974207;28;8794;-61
2022/03/28 09:29:01;;;;;;;;;12.67;12.67;18.20;21.70;;;;;;4976632;28;8783;-64
2022/03/28 09:31:35;;;;;;;;;15.33;13.33;17.90;20.90;;;;;;4976177;28;8787;-61
2022/03/28 09:34:10;;;;;;;;;8.00;8.00;18.40;21.50;;;;;;4976788;28;8800;-61
2022/03/28 09:36:37;;;;;;;;;20.00;18.67;18.80;19.60;;;;;;4976410;28;8762;-63
2022/03/28 09:39:04;;;;;;;;;17.00;15.00;19.00;21.30;;;;;;4975955;28;8813;-64
2022/03/28 09:41:31;;;;;;;;;19.33;18.00;18.70;21.20;;;;;;4976758;28;8762;-64
2022/03/28 09:43:57;;;;;;;;;17.67;15.67;18.70;21.80;;;;;;4976286;28;8924;-61
2022/03/28 09:46:30;;;;;;;;;17.33;15.00;18.80;20.40;;;;;;4976311;28;8775;-64
2022/03/28 09:48:59;;;;;;;;;13.00;13.00;19.00;21.60;;;;;;4976673;28;8873;-61
2022/03/28 09:51:30;;;;;;;;;10.67;10.67;18.80;19.90;;;;;;4976478;28;8774;-64
2022/03/28 09:53:57;;;;;;;;;11.00;10.67;18.80;21.20;;;;;;4976344;28;8755;-64
2022/03/28 09:56:24;;;;;;;;;9.33;9.33;19.20;20.00;;;;;;4976433;28;8778;-64
2022/03/28 09:58:58;;;;;;;;;15.67;13.67;19.70;20.60;;;;;;4976165;28;8809;-62
2022/03/28 10:01:35;;;;;;;;;12.67;11.00;19.40;20.30;;;;;;4976285;28;8849;-63
2022/03/28 10:04:09;;;;;;;;;13.00;13.00;19.30;20.20;;;;;;4976532;28;8808;-61
2022/03/28 10:06:37;;;;;;;;;14.33;12.00;19.60;20.30;;;;;;4976309;28;8774;-63
2022/03/28 10:09:07;;;;;;;;;13.67;12.33;19.60;21.10;;;;;;4975621;28;8873;-62
2022/03/28 10:11:36;;;;;;;;;13.00;11.00;19.70;21.20;;;;;;4976234;28;9421;-62
2022/03/28 10:14:02;;;;;;;;;10.00;10.00;20.00;22.30;;;;;;4976516;28;8791;-63
2022/03/28 10:16:28;;;;;;;;;11.33;11.00;20.30;20.20;;;;;;4975839;28;8791;-62
2022/03/28 10:18:54;;;;;;;;;13.00;13.00;20.50;20.30;;;;;;4975896;28;8810;-63
2022/03/28 10:21:32;;;;;;;;;14.33;14.00;20.70;20.90;;;;;;4976144;28;8751;-62
2022/03/28 10:24:08;;;;;;;;;14.33;14.33;20.70;21.30;;;;;;4975842;28;8761;-60
2022/03/28 10:26:38;;;;;;;;;16.00;16.00;20.60;20.50;;;;;;4975686;28;8885;-60
2022/03/28 10:29:07;;;;;;;;;14.67;12.00;20.90;20.00;;;;;;4975849;28;8821;-65
2022/03/28 10:31:34;;;;;;;;;14.00;14.00;21.60;20.10;;;;;;4975813;28;8763;-65
2022/03/28 10:34:01;;;;;;;;;14.00;14.00;21.50;19.80;;;;;;4975811;28;8750;-64
2022/03/28 10:36:29;;;;;;;;;17.00;15.33;21.30;20.80;;;;;;4975467;28;8815;-63
2022/03/28 10:39:35;;;;;;;;;4.67;1.00;21.30;20.10;;;;;;4975394;28;8814;-64
2022/03/28 10:42:17;;;;;;;;;11.00;11.00;21.50;19.60;;;;;;4976021;28;8762;-68
2022/03/28 10:44:59;;;;;;;;;13.33;13.33;21.60;20.30;;;;;;4975704;28;8777;-69
2022/03/28 10:47:45;;;;;;;;;13.00;13.00;21.70;19.30;;;;;;4975698;28;8812;-69
2022/03/28 10:50:21;;;;;;;;;15.67;15.67;22.00;20.00;;;;;;4975239;28;8766;-67
2022/03/28 10:53:04;;;;;;;;;16.33;16.33;22.50;19.80;;;;;;4975590;28;8799;-67
2022/03/28 10:55:44;;;;;;;;;15.33;13.33;22.90;21.20;;;;;;4974797;28;8778;-65
2022/03/28 10:58:15;;;;;;;;;17.00;15.00;22.70;20.10;;;;;;4975762;28;8766;-66
2022/03/28 11:01:06;;;;;;;;;14.67;14.67;22.90;19.70;;;;;;4971536;28;9489;-68
2022/03/28 11:03:39;;;;;;;;;19.00;18.00;22.90;20.30;;;;;;4972622;28;8782;-67
2022/03/28 11:06:05;;;;;;;;;17.00;16.00;23.00;19.70;;;;;;4973995;28;8770;-67
2022/03/28 11:08:36;;;;;;;;;17.00;15.33;22.60;20.50;;;;;;4974010;28;8797;-68
2022/03/28 11:11:22;;;;;;;;;15.67;14.33;22.70;20.80;;;;;;4972339;28;8789;-68
2022/03/28 11:14:00;;;;;;;;;20.00;17.67;22.90;20.90;;;;;;4973365;28;9460;-66
2022/03/28 11:16:52;;;;;;;;;17.33;17.33;23.20;19.90;;;;;;4973305;28;8758;-67
2022/03/28 11:19:20;;;;;;;;;18.33;17.33;23.60;20.40;;;;;;4968876;28;9548;-68
2022/03/28 11:22:05;;;;;;;;;18.67;17.33;23.60;22.10;;;;;;4973915;28;8763;-68
2022/03/28 11:24:54;;;;;;;;;15.00;14.00;24.00;22.00;;;;;;4971638;28;8763;-67
2022/03/28 11:27:29;;;;;;;;;14.00;14.00;23.90;21.50;;;;;;4971172;28;8877;-68
2022/03/28 11:30:11;;;;;;;;;20.33;19.67;24.00;21.40;;;;;;4973409;28;8755;-67
2022/03/28 11:32:38;;;;;;;;;18.33;16.00;24.50;20.90;;;;;;4972710;28;8803;-68
2022/03/28 11:35:05;;;;;;;;;14.33;14.33;24.60;19.80;;;;;;4973727;28;8874;-68
2022/03/28 11:37:32;;;;;;;;;16.33;16.33;25.10;19.50;;;;;;4973860;28;8940;-69
2022/03/28 11:40:07;;;;;;;;;16.00;15.33;25.40;20.00;;;;;;4973543;28;8810;-66
2022/03/28 11:42:36;;;;;;;;;21.67;17.33;25.30;22.50;;;;;;4971809;28;8798;-67
2022/03/28 11:45:12;;;;;;;;;15.00;15.00;25.50;20.70;;;;;;4973984;28;8751;-67
2022/03/28 11:47:40;;;;;;;;;16.33;14.33;25.70;20.80;;;;;;4972525;28;8777;-68
2022/03/28 11:50:08;;;;;;;;;14.00;14.00;26.10;19.90;;;;;;4973616;28;8769;-67
2022/03/28 11:52:35;;;;;;;;;14.00;13.00;26.30;20.20;;;;;;4972235;28;8746;-67
2022/03/28 11:55:02;;;;;;;;;11.00;11.00;27.10;20.10;;;;;;4973619;28;11425;-68
2022/03/28 12:00:20;;;;;;;;;14.33;14.33;27.80;19.00;;;;;;4970716;28;11447;-68
2022/03/28 12:02:51;;;;;;;;;15.67;15.67;28.50;19.20;;;;;;4971657;28;11393;-68
2022/03/28 12:05:32;;;;;;;;;11.00;11.00;29.50;18.80;;;;;;4971642;28;11437;-67
2022/03/28 12:08:00;;;;;;;;;14.67;14.67;30.90;17.40;;;;;;4967780;28;11467;-69
2022/03/28 12:10:36;;;;;;;;;11.50;11.50;31.60;17.30;;;;;;4978015;28;11439;-69
2022/03/28 12:13:05;;;;;;;;;12.75;12.75;32.00;17.10;;;;;;4973283;28;11560;-68
2022/03/28 12:15:34;;;;;;;;;11.50;11.50;31.60;16.80;;;;;;4967515;28;11476;-68
2022/03/28 12:18:05;;;;;;;;;12.50;12.50;31.40;16.90;;;;;;4958977;28;11501;-68
2022/03/28 12:20:42;;;;;;;;;11.00;11.00;31.90;16.60;;;;;;4958697;28;11484;-69
2022/03/28 12:23:09;;;;;;;;;11.50;11.50;33.30;16.10;;;;;;4958737;28;11490;-68
2022/03/28 12:25:38;;;;;;;;;13.00;13.00;32.90;16.40;;;;;;4964717;28;11554;-69
2022/03/28 12:28:17;;;;;;;;;9.50;9.50;32.70;17.00;;;;;;4962819;28;11490;-67
2022/03/28 12:30:50;;;;;;;;;13.50;13.50;33.00;15.70;;;;;;4969633;28;11401;-67
2022/03/28 12:33:38;;;;;;;;;10.25;10.25;31.80;14.60;;;;;;4977827;28;11484;-67
2022/03/28 12:36:07;;;;;;;;;10.50;10.50;29.80;15.40;;;;;;4977905;28;11519;-67
2022/03/28 12:38:44;;;;;;;;;9.50;9.50;29.00;16.20;;;;;;4974338;28;11556;-68
2022/03/28 12:41:15;;;;;;;;;9.50;9.50;29.90;16.40;;;;;;4973196;28;12900;-66
2022/03/28 12:43:47;;;;;;;;;10.50;10.50;31.20;15.80;;;;;;4967073;28;11471;-66
2022/03/28 12:46:16;;;;;;;;;8.25;8.25;31.60;15.00;;;;;;4958238;28;11571;-68